createdAt,value
2022-11-25T00:01:31.259Z,2.25
2022-11-25T00:03:58.983Z,1.65
2022-11-25T00:06:27.905Z,2.20
2022-11-25T00:08:58.103Z,2.65
2022-11-25T00:11:25.514Z,2.35
2022-11-25T00:13:52.519Z,1.60
2022-11-25T00:16:21.702Z,2.92
2022-11-25T00:18:50.956Z,1.38
2022-11-25T00:21:23.376Z,1.85
2022-11-25T00:24:04.915Z,2.50
2022-11-25T00:26:32.911Z,2.10
2022-11-25T00:29:02.413Z,2.25
2022-11-25T00:31:32.122Z,1.50
2022-11-25T00:33:59.235Z,1.23
2022-11-25T00:36:29.962Z,1.92
2022-11-25T00:38:59.315Z,1.45
2022-11-25T00:41:45.661Z,1.27
2022-11-25T00:44:38.892Z,1.17
2022-11-25T00:47:14.964Z,1.35
2022-11-25T00:49:44.804Z,1.58
2022-11-25T00:52:15.712Z,2.25
2022-11-25T00:54:44.717Z,1.50
2022-11-25T00:57:12.740Z,1.67
2022-11-25T00:59:39.728Z,2.20
2022-11-25T01:02:07.198Z,1.55
2022-11-25T01:04:34.782Z,1.67
2022-11-25T01:07:02.373Z,0.88
2022-11-25T01:09:29.430Z,1.60
2022-11-25T01:11:56.525Z,1.55
2022-11-25T01:14:24.271Z,1.10
2022-11-25T01:16:51.868Z,2.80
2022-11-25T01:19:20.049Z,2.22
2022-11-25T01:21:47.295Z,1.30
2022-11-25T01:24:16.080Z,1.08
2022-11-25T01:26:44.257Z,1.05
2022-11-25T01:29:15.457Z,1.15
2022-11-25T01:31:42.563Z,1.40
2022-11-25T01:34:15.670Z,1.98
2022-11-25T01:36:44.036Z,2.90
2022-11-25T01:39:18.375Z,1.85
2022-11-25T01:41:46.179Z,1.70
2022-11-25T01:44:22.536Z,2.67
2022-11-25T01:47:15.139Z,2.92
2022-11-25T01:49:50.270Z,2.05
2022-11-25T01:52:28.479Z,2.13
2022-11-25T01:55:01.572Z,2.00
2022-11-25T01:57:57.573Z,1.55
2022-11-25T02:00:25.661Z,2.72
2022-11-25T02:02:54.977Z,1.65
2022-11-25T02:05:40.503Z,1.80
2022-11-25T02:08:08.392Z,2.55
2022-11-25T02:10:36.394Z,1.60
2022-11-25T02:13:04.158Z,1.02
2022-11-25T02:15:35.413Z,0.88
2022-11-25T02:18:03.008Z,0.75
2022-11-25T02:20:30.111Z,0.80
2022-11-25T02:23:16.630Z,1.08
2022-11-25T02:25:45.246Z,1.02
2022-11-25T02:28:19.646Z,1.98
2022-11-25T02:30:47.076Z,0.77
2022-11-25T02:33:15.045Z,1.35
2022-11-25T02:35:43.630Z,1.33
2022-11-25T02:38:17.079Z,1.00
2022-11-25T02:40:55.155Z,1.00
2022-11-25T02:43:22.561Z,1.20
2022-11-25T02:46:17.410Z,1.73
2022-11-25T02:49:07.891Z,1.10
2022-11-25T02:51:35.028Z,0.60
2022-11-25T02:54:02.334Z,1.00
2022-11-25T02:56:32.222Z,0.82
2022-11-25T02:58:59.459Z,1.92
2022-11-25T03:01:26.856Z,1.55
2022-11-25T03:03:53.930Z,0.70
2022-11-25T03:06:20.999Z,1.85
2022-11-25T03:08:47.973Z,1.08
2022-11-25T03:11:15.192Z,1.02
2022-11-25T03:13:42.281Z,0.80
2022-11-25T03:16:09.350Z,1.20
2022-11-25T03:18:36.757Z,2.00
2022-11-25T03:21:03.949Z,1.02
2022-11-25T03:23:30.927Z,0.77
2022-11-25T03:25:57.951Z,1.67
2022-11-25T03:28:24.976Z,0.93
2022-11-25T03:30:52.245Z,1.38
2022-11-25T03:33:19.248Z,1.35
2022-11-25T03:35:48.084Z,1.13
2022-11-25T03:38:15.032Z,1.17
2022-11-25T03:40:41.922Z,1.10
2022-11-25T03:43:08.821Z,1.30
2022-11-25T03:45:35.799Z,1.83
2022-11-25T03:48:02.728Z,1.05
2022-11-25T03:50:29.671Z,1.38
2022-11-25T03:52:56.591Z,1.33
2022-11-25T03:55:23.507Z,1.50
2022-11-25T03:57:50.445Z,1.17
2022-11-25T04:00:17.482Z,0.90
2022-11-25T04:02:44.447Z,1.35
2022-11-25T04:05:11.442Z,1.00
2022-11-25T04:07:38.470Z,1.10
2022-11-25T04:10:05.980Z,2.17
2022-11-25T04:12:47.870Z,1.13
2022-11-25T04:15:16.450Z,0.80
2022-11-25T04:17:43.656Z,1.23
2022-11-25T04:20:11.825Z,1.30
2022-11-25T04:22:38.759Z,1.85
2022-11-25T04:25:06.223Z,1.35
2022-11-25T04:27:33.214Z,1.58
2022-11-25T04:30:00.310Z,1.50
2022-11-25T04:32:27.560Z,1.38
2022-11-25T04:34:54.530Z,1.50
2022-11-25T04:37:21.772Z,0.70
2022-11-25T04:39:48.755Z,2.10
2022-11-25T04:42:34.685Z,1.60
2022-11-25T04:47:51.433Z,1.88
2022-11-25T04:50:20.703Z,1.00
2022-11-25T04:52:47.712Z,0.75
2022-11-25T04:55:14.804Z,2.65
2022-11-25T04:57:41.705Z,1.52
2022-11-25T05:00:09.594Z,1.50
2022-11-25T05:02:36.687Z,1.40
2022-11-25T05:05:04.247Z,1.83
2022-11-25T05:07:31.285Z,1.58
2022-11-25T05:09:58.459Z,1.17
2022-11-25T05:12:28.716Z,1.05
2022-11-25T05:14:56.160Z,1.83
2022-11-25T05:17:25.996Z,1.50
2022-11-25T05:19:53.329Z,1.50
2022-11-25T05:22:23.175Z,1.15
2022-11-25T05:24:50.133Z,0.98
2022-11-25T05:27:18.001Z,0.63
2022-11-25T05:29:45.423Z,0.93
2022-11-25T05:32:13.090Z,0.93
2022-11-25T05:34:40.563Z,1.73
2022-11-25T05:37:07.621Z,0.70
2022-11-25T05:39:34.584Z,1.30
2022-11-25T05:42:01.504Z,1.02
2022-11-25T05:44:28.518Z,1.00
2022-11-25T05:46:55.491Z,0.60
2022-11-25T05:49:22.451Z,0.82
2022-11-25T05:51:49.353Z,0.68
2022-11-25T05:54:16.328Z,0.68
2022-11-25T05:56:43.201Z,0.40
2022-11-25T05:59:10.158Z,1.20
2022-11-25T06:01:37.041Z,0.68
2022-11-25T06:04:05.207Z,1.23
2022-11-25T06:06:32.856Z,1.02
2022-11-25T06:09:00.207Z,1.60
2022-11-25T06:11:27.280Z,1.30
2022-11-25T06:13:57.901Z,1.30
2022-11-25T06:16:25.736Z,0.88
2022-11-25T06:18:52.996Z,1.48
2022-11-25T06:21:20.340Z,0.85
2022-11-25T06:23:47.371Z,0.68
2022-11-25T06:26:20.257Z,1.17
2022-11-25T06:28:47.791Z,0.82
2022-11-25T06:31:17.810Z,0.95
2022-11-25T06:33:47.758Z,1.42
2022-11-25T06:36:17.489Z,2.53
2022-11-25T06:38:49.832Z,0.60
2022-11-25T06:41:17.217Z,1.65
2022-11-25T06:43:44.376Z,1.35
2022-11-25T06:46:17.439Z,0.73
2022-11-25T06:48:48.149Z,1.48
2022-11-25T06:51:15.874Z,1.20
2022-11-25T06:53:42.944Z,0.55
2022-11-25T06:56:16.259Z,0.77
2022-11-25T06:58:44.641Z,1.27
2022-11-25T07:01:15.782Z,1.00
2022-11-25T07:03:43.892Z,1.13
2022-11-25T07:06:13.328Z,1.05
2022-11-25T07:08:40.951Z,1.23
2022-11-25T07:11:12.970Z,1.23
2022-11-25T07:13:39.883Z,1.30
2022-11-25T07:16:08.108Z,0.90
2022-11-25T07:18:37.335Z,1.30
2022-11-25T07:21:13.578Z,1.25
2022-11-25T07:23:41.517Z,1.52
2022-11-25T07:26:11.288Z,1.00
2022-11-25T07:28:38.967Z,0.55
2022-11-25T07:31:33.332Z,1.27
2022-11-25T07:34:12.083Z,1.50
2022-11-25T07:36:39.624Z,1.20
2022-11-25T07:39:09.248Z,2.13
2022-11-25T07:41:36.348Z,1.33
2022-11-25T07:44:05.709Z,1.10
2022-11-25T07:46:32.643Z,0.82
2022-11-25T07:49:02.268Z,1.60
2022-11-25T07:51:40.834Z,1.30
2022-11-25T07:54:09.721Z,1.08
2022-11-25T07:56:38.537Z,0.75
2022-11-25T07:59:06.458Z,1.10
2022-11-25T08:01:33.363Z,0.95
2022-11-25T08:04:00.245Z,1.13
2022-11-25T08:06:29.657Z,0.95
2022-11-25T08:08:58.179Z,0.77
2022-11-25T08:11:27.329Z,1.45
2022-11-25T08:13:54.632Z,1.08
2022-11-25T08:16:24.914Z,0.77
2022-11-25T08:18:51.955Z,1.20
2022-11-25T08:21:19.094Z,1.27
2022-11-25T08:23:52.570Z,1.20
2022-11-25T08:26:30.343Z,0.70
2022-11-25T08:28:58.753Z,1.10
2022-11-25T08:31:31.445Z,0.82
2022-11-25T08:33:59.554Z,1.00
2022-11-25T08:36:28.147Z,0.40
2022-11-25T08:38:59.835Z,0.40
2022-11-25T08:41:34.320Z,0.90
2022-11-25T08:44:02.651Z,0.47
2022-11-25T08:46:34.306Z,0.80
2022-11-25T08:49:01.294Z,1.50
2022-11-25T08:51:30.606Z,0.63
2022-11-25T08:53:58.168Z,0.60
2022-11-25T08:56:26.662Z,0.50
2022-11-25T08:58:55.026Z,0.68
2022-11-25T09:01:23.642Z,0.65
2022-11-25T09:03:55.433Z,0.38
2022-11-25T09:06:22.981Z,0.90
2022-11-25T09:08:49.871Z,0.70
2022-11-25T09:11:17.155Z,0.77
2022-11-25T09:13:44.244Z,0.93
2022-11-25T09:16:11.272Z,0.55
2022-11-25T09:18:38.258Z,0.57
2022-11-25T09:21:10.817Z,1.13
2022-11-25T09:23:39.436Z,0.50
2022-11-25T09:26:07.582Z,0.93
2022-11-25T09:28:35.582Z,0.40
2022-11-25T09:31:09.469Z,0.50
2022-11-25T09:33:36.592Z,0.88
2022-11-25T09:36:04.357Z,0.70
2022-11-25T09:38:31.304Z,1.25
2022-11-25T09:41:01.671Z,1.23
2022-11-25T09:44:23.630Z,1.25
2022-11-25T09:47:05.474Z,0.82
2022-11-25T09:50:01.028Z,1.48
2022-11-25T09:52:48.095Z,1.33
2022-11-25T09:55:22.817Z,1.73
2022-11-25T09:58:20.683Z,1.67
2022-11-25T10:00:49.776Z,1.35
2022-11-25T10:03:43.905Z,1.05
2022-11-25T10:06:33.028Z,0.80
2022-11-25T10:09:04.359Z,1.52
2022-11-25T10:11:54.315Z,0.98
2022-11-25T10:14:30.241Z,1.35
2022-11-25T10:17:19.121Z,1.20
2022-11-25T10:20:05.354Z,1.33
2022-11-25T10:22:39.100Z,1.50
2022-11-25T10:25:22.226Z,0.90
2022-11-25T10:28:24.295Z,1.13
2022-11-25T10:31:16.837Z,1.80
2022-11-25T10:33:50.177Z,1.67
2022-11-25T10:36:26.245Z,1.48
2022-11-25T10:39:15.316Z,0.90
2022-11-25T10:41:55.310Z,1.40
2022-11-25T10:44:33.692Z,1.50
2022-11-25T10:47:27.268Z,3.05
2022-11-25T10:50:30.778Z,1.80
2022-11-25T10:53:04.686Z,2.45
2022-11-25T10:55:33.719Z,1.70
2022-11-25T10:58:31.164Z,1.88
2022-11-25T11:01:23.290Z,1.17
2022-11-25T11:04:03.611Z,1.98
2022-11-25T11:06:42.271Z,1.70
2022-11-25T11:09:32.667Z,1.20
2022-11-25T11:12:22.245Z,2.92
2022-11-25T11:14:49.289Z,1.98
2022-11-25T11:17:42.577Z,3.40
2022-11-25T11:20:09.391Z,2.60
2022-11-25T11:22:44.687Z,1.90
2022-11-25T11:25:25.678Z,2.33
2022-11-25T11:27:52.579Z,2.30
2022-11-25T11:30:23.327Z,1.90
2022-11-25T11:33:18.014Z,1.80
2022-11-25T11:36:16.244Z,2.58
2022-11-25T11:38:52.414Z,2.92
2022-11-25T11:41:38.131Z,1.90
2022-11-25T11:44:39.635Z,2.15
2022-11-25T11:47:50.905Z,1.90
2022-11-25T11:50:40.994Z,2.25
2022-11-25T11:53:26.411Z,1.50
2022-11-25T11:56:35.682Z,2.95
2022-11-25T11:59:36.386Z,1.85
2022-11-25T12:02:21.986Z,2.22
2022-11-25T12:05:07.668Z,1.88
2022-11-25T12:07:50.030Z,1.70
2022-11-25T12:10:22.901Z,2.75
2022-11-25T12:12:55.283Z,1.65
2022-11-25T12:15:32.391Z,2.20
2022-11-25T12:18:04.833Z,2.50
2022-11-25T12:20:50.539Z,2.75
2022-11-25T12:23:46.913Z,1.85
2022-11-25T12:26:39.276Z,1.83
2022-11-25T12:29:16.075Z,2.60
2022-11-25T12:31:50.663Z,0.90
2022-11-25T12:34:29.116Z,0.80
2022-11-25T12:37:07.459Z,2.42
2022-11-25T12:40:13.283Z,1.90
2022-11-25T12:42:41.710Z,1.25
2022-11-25T12:45:21.916Z,2.08
2022-11-25T12:47:49.439Z,1.40
2022-11-25T12:51:00.171Z,2.10
2022-11-25T12:53:43.148Z,2.03
2022-11-25T12:56:21.752Z,1.67
2022-11-25T12:59:04.615Z,2.42
2022-11-25T13:02:09.174Z,2.10
2022-11-25T13:05:32.853Z,2.25
2022-11-25T13:08:32.778Z,2.13
2022-11-25T13:11:27.228Z,2.00
2022-11-25T13:14:24.608Z,1.85
2022-11-25T13:16:53.936Z,2.22
2022-11-25T13:19:21.782Z,1.70
2022-11-25T13:22:06.668Z,1.55
2022-11-25T13:24:41.914Z,2.38
2022-11-25T13:27:40.341Z,1.65
2022-11-25T13:30:33.034Z,2.25
2022-11-25T13:33:11.999Z,1.98
2022-11-25T13:35:56.548Z,2.15
2022-11-25T13:38:29.479Z,1.73
2022-11-25T13:41:24.282Z,1.70
2022-11-25T13:44:20.391Z,0.95
2022-11-25T13:46:53.611Z,1.70
2022-11-25T13:49:29.351Z,1.05
2022-11-25T13:51:59.802Z,0.63
2022-11-25T13:54:35.366Z,1.25
2022-11-25T13:57:27.621Z,0.65
2022-11-25T14:00:00.802Z,0.82
2022-11-25T14:02:27.824Z,0.70
2022-11-25T14:05:05.777Z,0.80
2022-11-25T14:08:10.248Z,0.68
2022-11-25T14:10:50.971Z,0.90
2022-11-25T14:13:38.566Z,0.93
2022-11-25T14:16:43.186Z,0.80
2022-11-25T14:19:43.182Z,0.60
2022-11-25T14:24:43.858Z,0.38
2022-11-25T14:27:17.469Z,0.40
2022-11-25T14:29:52.471Z,0.30
2022-11-25T14:32:50.287Z,0.70
2022-11-25T14:35:25.554Z,0.30
2022-11-25T14:38:00.227Z,0.17
2022-11-25T14:40:44.751Z,0.60
2022-11-25T14:43:20.930Z,0.50
2022-11-25T14:45:48.029Z,0.55
2022-11-25T14:48:25.911Z,0.85
2022-11-25T14:51:03.991Z,0.65
2022-11-25T14:53:31.370Z,0.30
2022-11-25T14:56:00.812Z,0.30
2022-11-25T14:58:27.821Z,0.88
2022-11-25T15:00:57.741Z,0.40
2022-11-25T15:03:25.042Z,0.63
2022-11-25T15:05:57.360Z,0.45
2022-11-25T15:08:26.236Z,0.40
2022-11-25T15:11:07.189Z,0.32
2022-11-25T15:13:40.625Z,0.52
2022-11-25T15:16:21.053Z,0.10
2022-11-25T15:18:56.991Z,1.10
2022-11-25T15:21:30.018Z,0.63
2022-11-25T15:23:57.612Z,0.35
2022-11-25T15:26:31.274Z,0.43
2022-11-25T15:29:10.271Z,0.52
2022-11-25T15:31:39.033Z,0.45
2022-11-25T15:34:11.458Z,0.90
2022-11-25T15:36:38.885Z,0.28
2022-11-25T15:39:20.894Z,0.55
2022-11-25T15:41:53.865Z,0.60
2022-11-25T15:44:30.700Z,0.38
2022-11-25T15:47:17.904Z,0.20
2022-11-25T15:49:54.026Z,0.60
2022-11-25T15:52:23.139Z,0.45
2022-11-25T15:54:52.574Z,0.38
2022-11-25T15:57:32.006Z,0.60
2022-11-25T15:59:58.846Z,0.40
2022-11-25T16:02:43.696Z,0.60
2022-11-25T16:05:16.223Z,1.30
2022-11-25T16:07:52.624Z,0.40
2022-11-25T16:10:31.794Z,0.25
2022-11-25T16:13:23.712Z,0.70
2022-11-25T16:16:09.464Z,0.30
2022-11-25T16:19:06.151Z,0.60
2022-11-25T16:21:36.131Z,1.48
2022-11-25T16:24:05.833Z,0.70
2022-11-25T16:26:36.229Z,1.20
2022-11-25T16:29:20.302Z,0.52
2022-11-25T16:31:47.308Z,0.50
2022-11-25T16:34:20.354Z,0.50
2022-11-25T16:36:47.447Z,0.68
2022-11-25T16:39:14.476Z,0.80
2022-11-25T16:41:42.521Z,1.13
2022-11-25T16:44:18.730Z,2.25
2022-11-25T16:51:44.136Z,1.30
2022-11-25T16:54:12.525Z,0.98
2022-11-25T16:56:44.390Z,0.80
2022-11-25T16:59:25.706Z,1.10
2022-11-25T17:01:53.523Z,0.30
2022-11-25T17:04:20.512Z,0.47
2022-11-25T17:07:16.338Z,0.60
2022-11-25T17:09:34.942Z,0.30
2022-11-25T17:12:02.165Z,0.63
2022-11-25T17:14:33.261Z,0.85
2022-11-25T17:17:01.438Z,0.20
2022-11-25T17:19:28.563Z,0.20
2022-11-25T17:21:55.529Z,0.50
2022-11-25T17:24:23.972Z,0.50
2022-11-25T17:26:56.371Z,0.30
2022-11-25T17:29:31.606Z,1.10
2022-11-25T17:31:58.955Z,1.00
2022-11-25T17:34:25.942Z,1.42
2022-11-25T17:36:52.829Z,1.25
2022-11-25T17:39:19.774Z,0.75
2022-11-25T17:41:49.271Z,1.13
2022-11-25T17:44:27.904Z,1.20
2022-11-25T17:46:56.841Z,1.27
2022-11-25T17:49:24.332Z,0.98
2022-11-25T17:51:51.655Z,1.75
2022-11-25T17:54:18.599Z,4.93
2022-11-25T17:56:51.759Z,3.55
2022-11-25T17:59:25.749Z,2.90
2022-11-25T18:01:53.306Z,2.25
2022-11-25T18:04:24.375Z,1.58
2022-11-25T18:06:51.914Z,1.55
2022-11-25T18:09:19.788Z,1.63
2022-11-25T18:11:50.671Z,1.10
2022-11-25T18:14:20.580Z,0.95
2022-11-25T18:16:47.746Z,1.98
2022-11-25T18:19:14.750Z,1.40
2022-11-25T18:21:41.780Z,1.60
2022-11-25T18:24:08.858Z,2.75
2022-11-25T18:26:49.951Z,3.95
2022-11-25T18:29:35.209Z,2.20
2022-11-25T18:32:02.111Z,2.00
2022-11-25T18:34:29.104Z,1.55
2022-11-25T18:36:56.007Z,1.50
2022-11-25T18:39:23.469Z,1.23
2022-11-25T18:41:53.936Z,1.30
2022-11-25T18:44:27.882Z,1.15
2022-11-25T18:46:55.244Z,1.15
2022-11-25T18:49:23.877Z,0.82
2022-11-25T18:51:50.931Z,0.80
2022-11-25T18:54:17.825Z,1.05
2022-11-25T18:56:48.723Z,1.60
2022-11-25T18:59:19.613Z,0.77
2022-11-25T19:01:49.859Z,1.27
2022-11-25T19:04:17.204Z,0.73
2022-11-25T19:06:44.624Z,1.35
2022-11-25T19:09:12.043Z,1.40
2022-11-25T19:11:51.227Z,1.35
2022-11-25T19:14:36.227Z,2.05
2022-11-25T19:17:09.479Z,1.50
2022-11-25T19:19:37.980Z,1.42
2022-11-25T19:22:15.804Z,1.13
2022-11-25T19:24:43.278Z,2.00
2022-11-25T19:27:32.034Z,2.90
2022-11-25T19:29:59.139Z,4.25
2022-11-25T19:32:28.852Z,3.60
2022-11-25T19:35:02.409Z,2.65
2022-11-25T19:37:31.954Z,2.30
2022-11-25T19:39:59.042Z,2.33
2022-11-25T19:42:26.068Z,1.50
2022-11-25T19:44:53.120Z,2.55
2022-11-25T19:47:23.006Z,1.65
2022-11-25T19:49:52.917Z,1.63
2022-11-25T19:52:30.396Z,1.10
2022-11-25T19:54:57.250Z,1.83
2022-11-25T19:57:24.940Z,1.25
2022-11-25T19:59:51.950Z,1.27
2022-11-25T20:02:24.405Z,0.93
2022-11-25T20:04:54.507Z,0.98
2022-11-25T20:07:22.222Z,2.60
2022-11-25T20:09:51.597Z,1.98
2022-11-25T20:12:24.922Z,1.63
2022-11-25T20:14:52.621Z,1.95
2022-11-25T20:17:26.533Z,2.28
2022-11-25T20:19:54.815Z,1.48
2022-11-25T20:22:26.637Z,1.10
2022-11-25T20:24:54.869Z,1.20
2022-11-25T20:27:25.066Z,1.38
2022-11-25T20:29:52.163Z,1.85
2022-11-25T20:32:24.380Z,1.10
2022-11-25T20:34:51.274Z,1.10
2022-11-25T20:37:23.772Z,1.20
2022-11-25T20:39:53.333Z,1.70
2022-11-25T20:42:21.581Z,1.38
2022-11-25T20:44:53.307Z,1.30
2022-11-25T20:47:25.155Z,2.97
2022-11-25T20:49:52.091Z,1.88
2022-11-25T20:52:24.705Z,1.40
2022-11-25T20:54:51.601Z,1.17
2022-11-25T20:57:18.497Z,2.45
2022-11-25T20:59:45.400Z,2.60
2022-11-25T21:02:12.636Z,2.10
2022-11-25T21:04:39.931Z,2.47
2022-11-25T21:07:15.405Z,2.85
2022-11-25T21:09:42.839Z,1.97
2022-11-25T21:12:18.854Z,3.65
2022-11-25T21:14:47.164Z,2.20
2022-11-25T21:17:14.136Z,3.45
2022-11-25T21:19:41.164Z,1.50
2022-11-25T21:22:13.615Z,1.73
2022-11-25T21:24:42.450Z,2.70
2022-11-25T21:27:17.066Z,2.00
2022-11-25T21:29:45.488Z,1.88
2022-11-25T21:32:30.795Z,2.55
2022-11-25T21:34:58.249Z,3.13
2022-11-25T21:37:30.885Z,3.22
2022-11-25T21:39:59.390Z,2.28
2022-11-25T21:42:27.620Z,2.35
2022-11-25T21:44:55.192Z,1.50
2022-11-25T21:47:24.839Z,2.50
2022-11-25T21:49:51.955Z,1.48
2022-11-25T21:52:19.248Z,1.48
2022-11-25T21:54:46.191Z,1.85
2022-11-25T21:57:22.760Z,1.05
2022-11-25T21:59:49.817Z,1.08
2022-11-25T22:02:22.506Z,1.92
2022-11-25T22:04:49.950Z,4.32
2022-11-25T22:07:16.966Z,1.83
2022-11-25T22:09:44.201Z,4.78
2022-11-25T22:12:25.289Z,2.63
2022-11-25T22:14:52.564Z,1.90
2022-11-25T22:17:19.931Z,2.03
2022-11-25T22:19:47.069Z,1.80
2022-11-25T22:22:15.669Z,2.42
2022-11-25T22:24:42.656Z,2.00
2022-11-25T22:27:26.044Z,2.70
2022-11-25T22:29:53.140Z,2.05
2022-11-25T22:32:20.101Z,2.88
2022-11-25T22:34:47.013Z,3.33
2022-11-25T22:37:22.792Z,3.13
2022-11-25T22:39:51.151Z,2.25
2022-11-25T22:42:36.774Z,2.40
2022-11-25T22:45:06.626Z,1.85
2022-11-25T22:47:35.994Z,1.95
2022-11-25T22:50:25.038Z,2.13
2022-11-25T22:52:53.405Z,2.10
2022-11-25T22:55:22.385Z,1.92
2022-11-25T22:57:50.869Z,1.25
2022-11-25T23:00:31.784Z,2.17
2022-11-25T23:03:00.417Z,1.17
2022-11-25T23:05:33.971Z,2.08
2022-11-25T23:08:02.615Z,1.40
2022-11-25T23:10:31.531Z,1.20
2022-11-25T23:12:58.444Z,1.15
2022-11-25T23:15:25.331Z,1.98
2022-11-25T23:17:55.788Z,1.77
2022-11-25T23:20:28.052Z,1.95
2022-11-25T23:22:54.977Z,2.55
2022-11-25T23:25:23.573Z,1.15
2022-11-25T23:27:50.442Z,1.15
2022-11-25T23:30:23.347Z,1.08
2022-11-25T23:32:52.485Z,1.42
2022-11-25T23:35:26.704Z,2.17
2022-11-25T23:37:55.468Z,1.95
2022-11-25T23:40:25.481Z,1.70
2022-11-25T23:42:52.660Z,0.70
2022-11-25T23:45:23.389Z,0.90
2022-11-25T23:47:52.715Z,1.25
2022-11-25T23:50:32.946Z,1.35
2022-11-25T23:53:06.890Z,1.52
2022-11-25T23:55:38.656Z,2.15
2022-11-25T23:58:15.691Z,1.40
